sensor_id;sensor_type;location;lat;lon;timestamp;temperature;humidity
28520;DHT22;15732;48.534;20.382;2023-04-15T00:00:26;8.70;99.90
28520;DHT22;15732;48.534;20.382;2023-04-15T00:02:55;8.60;99.90
28520;DHT22;15732;48.534;20.382;2023-04-15T00:05:22;8.50;99.90
28520;DHT22;15732;48.534;20.382;2023-04-15T00:07:53;8.50;99.90
28520;DHT22;15732;48.534;20.382;2023-04-15T00:10:24;8.60;99.90
28520;DHT22;15732;48.534;20.382;2023-04-15T00:12:56;8.60;99.90
28520;DHT22;15732;48.534;20.382;2023-04-15T00:15:27;8.70;99.90
28520;DHT22;15732;48.534;20.382;2023-04-15T00:17:54;8.70;99.90
28520;DHT22;15732;48.534;20.382;2023-04-15T00:20:26;8.60;99.90
28520;DHT22;15732;48.534;20.382;2023-04-15T00:22:57;8.40;99.90
28520;DHT22;15732;48.534;20.382;2023-04-15T00:25:26;8.20;99.90
28520;DHT22;15732;48.534;20.382;2023-04-15T00:27:57;8.20;99.90
28520;DHT22;15732;48.534;20.382;2023-04-15T00:30:26;8.20;99.90
28520;DHT22;15732;48.534;20.382;2023-04-15T00:32:53;8.30;99.90
28520;DHT22;15732;48.534;20.382;2023-04-15T00:35:21;8.40;99.90
28520;DHT22;15732;48.534;20.382;2023-04-15T00:37:48;8.50;99.90
28520;DHT22;15732;48.534;20.382;2023-04-15T00:40:18;8.60;99.90
28520;DHT22;15732;48.534;20.382;2023-04-15T00:42:45;8.60;99.90
28520;DHT22;15732;48.534;20.382;2023-04-15T00:45:12;8.60;99.90
28520;DHT22;15732;48.534;20.382;2023-04-15T00:47:40;8.70;99.90
28520;DHT22;15732;48.534;20.382;2023-04-15T00:50:11;8.70;99.90
28520;DHT22;15732;48.534;20.382;2023-04-15T00:52:42;8.80;99.90
28520;DHT22;15732;48.534;20.382;2023-04-15T00:55:10;8.90;99.90
28520;DHT22;15732;48.534;20.382;2023-04-15T00:57:41;8.90;99.90
28520;DHT22;15732;48.534;20.382;2023-04-15T01:00:10;8.90;99.90
28520;DHT22;15732;48.534;20.382;2023-04-15T01:02:39;8.60;99.90
28520;DHT22;15732;48.534;20.382;2023-04-15T01:05:10;8.50;99.90
28520;DHT22;15732;48.534;20.382;2023-04-15T01:07:37;8.50;99.90
28520;DHT22;15732;48.534;20.382;2023-04-15T01:10:06;8.60;99.90
28520;DHT22;15732;48.534;20.382;2023-04-15T01:12:33;8.50;99.90
28520;DHT22;15732;48.534;20.382;2023-04-15T01:15:01;8.40;99.90
28520;DHT22;15732;48.534;20.382;2023-04-15T01:17:28;8.40;99.90
28520;DHT22;15732;48.534;20.382;2023-04-15T01:20:00;8.40;99.90
28520;DHT22;15732;48.534;20.382;2023-04-15T01:22:27;8.50;99.90
28520;DHT22;15732;48.534;20.382;2023-04-15T01:25:15;8.60;99.90
28520;DHT22;15732;48.534;20.382;2023-04-15T01:27:57;8.70;99.90
28520;DHT22;15732;48.534;20.382;2023-04-15T01:30:27;8.80;99.90
28520;DHT22;15732;48.534;20.382;2023-04-15T01:32:54;8.70;99.90
28520;DHT22;15732;48.534;20.382;2023-04-15T01:35:22;8.60;99.90
28520;DHT22;15732;48.534;20.382;2023-04-15T01:37:49;8.40;99.90
28520;DHT22;15732;48.534;20.382;2023-04-15T01:40:17;8.40;99.90
28520;DHT22;15732;48.534;20.382;2023-04-15T01:42:44;8.40;99.90
28520;DHT22;15732;48.534;20.382;2023-04-15T01:45:11;8.40;99.90
28520;DHT22;15732;48.534;20.382;2023-04-15T01:47:43;8.50;99.90
28520;DHT22;15732;48.534;20.382;2023-04-15T01:50:11;8.50;99.90
28520;DHT22;15732;48.534;20.382;2023-04-15T01:52:39;8.60;99.90
28520;DHT22;15732;48.534;20.382;2023-04-15T01:55:07;8.60;99.90
28520;DHT22;15732;48.534;20.382;2023-04-15T01:57:35;8.50;99.90
28520;DHT22;15732;48.534;20.382;2023-04-15T02:00:02;8.50;99.90
28520;DHT22;15732;48.534;20.382;2023-04-15T02:02:31;8.50;99.90
28520;DHT22;15732;48.534;20.382;2023-04-15T02:04:58;8.50;99.90
28520;DHT22;15732;48.534;20.382;2023-04-15T02:07:26;8.50;99.90
28520;DHT22;15732;48.534;20.382;2023-04-15T02:09:54;8.50;99.90
28520;DHT22;15732;48.534;20.382;2023-04-15T02:12:25;8.50;99.90
28520;DHT22;15732;48.534;20.382;2023-04-15T02:14:53;8.50;99.90
28520;DHT22;15732;48.534;20.382;2023-04-15T02:17:21;8.50;99.90
28520;DHT22;15732;48.534;20.382;2023-04-15T02:19:49;8.50;99.90
28520;DHT22;15732;48.534;20.382;2023-04-15T02:22:20;8.60;99.90
28520;DHT22;15732;48.534;20.382;2023-04-15T02:24:48;8.60;99.90
28520;DHT22;15732;48.534;20.382;2023-04-15T02:27:15;8.60;99.90
28520;DHT22;15732;48.534;20.382;2023-04-15T02:29:43;8.40;99.90
28520;DHT22;15732;48.534;20.382;2023-04-15T02:32:12;8.30;99.90
28520;DHT22;15732;48.534;20.382;2023-04-15T02:34:39;8.10;99.90
28520;DHT22;15732;48.534;20.382;2023-04-15T02:37:10;8.00;99.90
28520;DHT22;15732;48.534;20.382;2023-04-15T02:39:36;8.00;99.90
28520;DHT22;15732;48.534;20.382;2023-04-15T02:42:07;8.00;99.90
28520;DHT22;15732;48.534;20.382;2023-04-15T02:44:34;8.10;99.90
28520;DHT22;15732;48.534;20.382;2023-04-15T02:47:06;8.20;99.90
28520;DHT22;15732;48.534;20.382;2023-04-15T02:49:37;8.30;99.90
28520;DHT22;15732;48.534;20.382;2023-04-15T02:52:09;8.40;99.90
28520;DHT22;15732;48.534;20.382;2023-04-15T02:54:37;8.50;99.90
28520;DHT22;15732;48.534;20.382;2023-04-15T02:57:04;8.40;99.90
28520;DHT22;15732;48.534;20.382;2023-04-15T02:59:35;8.40;99.90
28520;DHT22;15732;48.534;20.382;2023-04-15T03:02:03;8.30;99.90
28520;DHT22;15732;48.534;20.382;2023-04-15T03:04:33;8.30;99.90
28520;DHT22;15732;48.534;20.382;2023-04-15T03:07:00;8.20;99.90
28520;DHT22;15732;48.534;20.382;2023-04-15T03:09:28;8.20;99.90
28520;DHT22;15732;48.534;20.382;2023-04-15T03:11:55;8.20;99.90
28520;DHT22;15732;48.534;20.382;2023-04-15T03:14:26;8.20;99.90
28520;DHT22;15732;48.534;20.382;2023-04-15T03:16:54;8.10;99.90
28520;DHT22;15732;48.534;20.382;2023-04-15T03:19:21;8.10;99.90
28520;DHT22;15732;48.534;20.382;2023-04-15T03:21:48;8.10;99.90
28520;DHT22;15732;48.534;20.382;2023-04-15T03:24:16;8.10;99.90
28520;DHT22;15732;48.534;20.382;2023-04-15T03:26:43;8.10;99.90
28520;DHT22;15732;48.534;20.382;2023-04-15T03:29:14;8.10;99.90
28520;DHT22;15732;48.534;20.382;2023-04-15T03:31:45;8.20;99.90
28520;DHT22;15732;48.534;20.382;2023-04-15T03:34:13;8.30;99.90
28520;DHT22;15732;48.534;20.382;2023-04-15T03:36:40;8.40;99.90
28520;DHT22;15732;48.534;20.382;2023-04-15T03:39:08;8.30;99.90
28520;DHT22;15732;48.534;20.382;2023-04-15T03:41:35;8.20;99.90
28520;DHT22;15732;48.534;20.382;2023-04-15T03:44:03;8.20;99.90
28520;DHT22;15732;48.534;20.382;2023-04-15T03:46:31;8.20;99.90
28520;DHT22;15732;48.534;20.382;2023-04-15T03:48:58;8.20;99.90
28520;DHT22;15732;48.534;20.382;2023-04-15T03:51:25;8.20;99.90
28520;DHT22;15732;48.534;20.382;2023-04-15T03:53:56;8.20;99.90
28520;DHT22;15732;48.534;20.382;2023-04-15T03:56:26;8.20;99.90
28520;DHT22;15732;48.534;20.382;2023-04-15T03:58:54;8.10;99.90
28520;DHT22;15732;48.534;20.382;2023-04-15T04:01:22;8.10;99.90
28520;DHT22;15732;48.534;20.382;2023-04-15T04:03:53;8.20;99.90
28520;DHT22;15732;48.534;20.382;2023-04-15T04:06:21;8.30;99.90
28520;DHT22;15732;48.534;20.382;2023-04-15T04:08:48;8.30;99.90
28520;DHT22;15732;48.534;20.382;2023-04-15T04:11:16;8.20;99.90
28520;DHT22;15732;48.534;20.382;2023-04-15T04:13:43;8.20;99.90
28520;DHT22;15732;48.534;20.382;2023-04-15T04:16:11;8.10;99.90
28520;DHT22;15732;48.534;20.382;2023-04-15T04:18:42;8.00;99.90
28520;DHT22;15732;48.534;20.382;2023-04-15T04:21:10;8.10;99.90
28520;DHT22;15732;48.534;20.382;2023-04-15T04:23:37;8.00;99.90
28520;DHT22;15732;48.534;20.382;2023-04-15T04:26:04;8.10;99.90
28520;DHT22;15732;48.534;20.382;2023-04-15T04:28:32;8.10;99.90
28520;DHT22;15732;48.534;20.382;2023-04-15T04:31:00;8.00;99.90
28520;DHT22;15732;48.534;20.382;2023-04-15T04:33:27;8.10;99.90
28520;DHT22;15732;48.534;20.382;2023-04-15T04:35:58;8.00;99.90
28520;DHT22;15732;48.534;20.382;2023-04-15T04:38:25;8.10;99.90
28520;DHT22;15732;48.534;20.382;2023-04-15T04:40:53;8.10;99.90
28520;DHT22;15732;48.534;20.382;2023-04-15T04:43:24;8.00;99.90
28520;DHT22;15732;48.534;20.382;2023-04-15T04:45:52;8.00;99.90
28520;DHT22;15732;48.534;20.382;2023-04-15T04:48:23;8.00;99.90
28520;DHT22;15732;48.534;20.382;2023-04-15T04:50:55;8.10;99.90
28520;DHT22;15732;48.534;20.382;2023-04-15T04:53:23;8.00;99.90
28520;DHT22;15732;48.534;20.382;2023-04-15T04:55:50;8.10;99.90
28520;DHT22;15732;48.534;20.382;2023-04-15T04:58:18;8.00;99.90
28520;DHT22;15732;48.534;20.382;2023-04-15T05:00:45;8.10;99.90
28520;DHT22;15732;48.534;20.382;2023-04-15T05:03:16;8.10;99.90
28520;DHT22;15732;48.534;20.382;2023-04-15T05:05:43;8.10;99.90
28520;DHT22;15732;48.534;20.382;2023-04-15T05:08:11;8.10;99.90
28520;DHT22;15732;48.534;20.382;2023-04-15T05:10:38;8.10;99.90
28520;DHT22;15732;48.534;20.382;2023-04-15T05:13:06;8.10;99.90
28520;DHT22;15732;48.534;20.382;2023-04-15T05:15:37;8.20;99.90
28520;DHT22;15732;48.534;20.382;2023-04-15T05:18:06;8.20;99.90
28520;DHT22;15732;48.534;20.382;2023-04-15T05:20:34;8.20;99.90
28520;DHT22;15732;48.534;20.382;2023-04-15T05:23:05;8.20;99.90
28520;DHT22;15732;48.534;20.382;2023-04-15T05:25:37;8.30;99.90
28520;DHT22;15732;48.534;20.382;2023-04-15T05:28:08;8.40;99.90
28520;DHT22;15732;48.534;20.382;2023-04-15T05:30:39;8.40;99.90
28520;DHT22;15732;48.534;20.382;2023-04-15T05:33:07;8.40;99.90
28520;DHT22;15732;48.534;20.382;2023-04-15T05:35:38;8.40;99.90
28520;DHT22;15732;48.534;20.382;2023-04-15T05:38:10;8.50;99.90
28520;DHT22;15732;48.534;20.382;2023-04-15T05:40:37;8.50;99.90
28520;DHT22;15732;48.534;20.382;2023-04-15T05:43:08;8.70;99.90
28520;DHT22;15732;48.534;20.382;2023-04-15T05:45:35;8.80;99.90
28520;DHT22;15732;48.534;20.382;2023-04-15T05:48:03;8.90;99.90
28520;DHT22;15732;48.534;20.382;2023-04-15T05:50:30;8.90;99.90
28520;DHT22;15732;48.534;20.382;2023-04-15T05:52:58;9.00;99.90
28520;DHT22;15732;48.534;20.382;2023-04-15T05:55:29;9.00;99.90
28520;DHT22;15732;48.534;20.382;2023-04-15T05:57:56;9.00;99.90
28520;DHT22;15732;48.534;20.382;2023-04-15T06:00:23;9.20;99.90
28520;DHT22;15732;48.534;20.382;2023-04-15T06:02:56;9.20;99.90
28520;DHT22;15732;48.534;20.382;2023-04-15T06:05:24;9.30;99.90
28520;DHT22;15732;48.534;20.382;2023-04-15T06:07:56;9.20;99.90
28520;DHT22;15732;48.534;20.382;2023-04-15T06:10:27;9.20;99.90
28520;DHT22;15732;48.534;20.382;2023-04-15T06:12:54;9.30;99.90
28520;DHT22;15732;48.534;20.382;2023-04-15T06:15:22;9.30;99.90
28520;DHT22;15732;48.534;20.382;2023-04-15T06:17:49;9.40;99.90
28520;DHT22;15732;48.534;20.382;2023-04-15T06:20:17;9.40;99.90
28520;DHT22;15732;48.534;20.382;2023-04-15T06:22:44;9.40;99.90
28520;DHT22;15732;48.534;20.382;2023-04-15T06:25:15;9.50;99.90
28520;DHT22;15732;48.534;20.382;2023-04-15T06:27:43;9.40;99.90
28520;DHT22;15732;48.534;20.382;2023-04-15T06:30:11;9.40;99.90
28520;DHT22;15732;48.534;20.382;2023-04-15T06:32:39;9.50;99.90
28520;DHT22;15732;48.534;20.382;2023-04-15T06:35:07;9.50;99.90
28520;DHT22;15732;48.534;20.382;2023-04-15T06:37:35;9.40;99.90
28520;DHT22;15732;48.534;20.382;2023-04-15T06:40:03;9.50;99.90
28520;DHT22;15732;48.534;20.382;2023-04-15T06:42:31;9.50;99.90
28520;DHT22;15732;48.534;20.382;2023-04-15T06:44:59;9.60;99.90
28520;DHT22;15732;48.534;20.382;2023-04-15T06:47:27;9.60;99.90
28520;DHT22;15732;48.534;20.382;2023-04-15T06:49:54;9.70;99.90
28520;DHT22;15732;48.534;20.382;2023-04-15T06:52:22;9.80;99.90
28520;DHT22;15732;48.534;20.382;2023-04-15T06:54:52;9.90;99.90
28520;DHT22;15732;48.534;20.382;2023-04-15T06:57:20;10.00;99.90
28520;DHT22;15732;48.534;20.382;2023-04-15T06:59:47;10.00;99.90
28520;DHT22;15732;48.534;20.382;2023-04-15T07:02:15;10.10;99.90
28520;DHT22;15732;48.534;20.382;2023-04-15T07:04:42;10.20;99.90
28520;DHT22;15732;48.534;20.382;2023-04-15T07:07:09;10.20;99.90
28520;DHT22;15732;48.534;20.382;2023-04-15T07:09:36;10.40;99.90
28520;DHT22;15732;48.534;20.382;2023-04-15T07:12:04;10.40;99.90
28520;DHT22;15732;48.534;20.382;2023-04-15T07:14:35;10.50;99.90
28520;DHT22;15732;48.534;20.382;2023-04-15T07:17:02;10.60;99.90
28520;DHT22;15732;48.534;20.382;2023-04-15T07:19:30;10.70;99.90
28520;DHT22;15732;48.534;20.382;2023-04-15T07:21:57;10.70;99.90
28520;DHT22;15732;48.534;20.382;2023-04-15T07:24:25;10.90;99.90
28520;DHT22;15732;48.534;20.382;2023-04-15T07:26:53;10.90;99.90
28520;DHT22;15732;48.534;20.382;2023-04-15T07:29:24;11.00;99.90
28520;DHT22;15732;48.534;20.382;2023-04-15T07:31:52;11.00;99.90
28520;DHT22;15732;48.534;20.382;2023-04-15T07:34:20;11.10;99.90
28520;DHT22;15732;48.534;20.382;2023-04-15T07:36:51;11.20;99.90
28520;DHT22;15732;48.534;20.382;2023-04-15T07:39:19;11.20;99.90
28520;DHT22;15732;48.534;20.382;2023-04-15T07:41:47;11.20;99.90
28520;DHT22;15732;48.534;20.382;2023-04-15T07:44:18;11.20;99.90
28520;DHT22;15732;48.534;20.382;2023-04-15T07:46:49;11.30;99.90
28520;DHT22;15732;48.534;20.382;2023-04-15T07:49:20;11.30;99.90
28520;DHT22;15732;48.534;20.382;2023-04-15T07:51:52;11.30;99.90
28520;DHT22;15732;48.534;20.382;2023-04-15T07:54:24;11.30;99.90
28520;DHT22;15732;48.534;20.382;2023-04-15T07:56:52;11.30;99.90
28520;DHT22;15732;48.534;20.382;2023-04-15T07:59:19;11.30;99.90
28520;DHT22;15732;48.534;20.382;2023-04-15T08:01:47;11.30;99.90
28520;DHT22;15732;48.534;20.382;2023-04-15T08:04:15;11.30;99.90
28520;DHT22;15732;48.534;20.382;2023-04-15T08:06:42;11.30;99.90
28520;DHT22;15732;48.534;20.382;2023-04-15T08:09:16;11.30;99.90
28520;DHT22;15732;48.534;20.382;2023-04-15T08:11:43;11.30;99.90
28520;DHT22;15732;48.534;20.382;2023-04-15T08:14:11;11.20;99.90
28520;DHT22;15732;48.534;20.382;2023-04-15T08:16:42;11.20;99.90
28520;DHT22;15732;48.534;20.382;2023-04-15T08:19:09;11.20;99.90
28520;DHT22;15732;48.534;20.382;2023-04-15T08:21:37;11.20;99.90
28520;DHT22;15732;48.534;20.382;2023-04-15T08:24:09;11.20;99.90
28520;DHT22;15732;48.534;20.382;2023-04-15T08:26:37;11.30;99.90
28520;DHT22;15732;48.534;20.382;2023-04-15T08:29:04;11.30;99.90
28520;DHT22;15732;48.534;20.382;2023-04-15T08:31:32;11.30;99.90
28520;DHT22;15732;48.534;20.382;2023-04-15T08:34:03;11.30;99.90
28520;DHT22;15732;48.534;20.382;2023-04-15T08:36:35;11.30;99.90
28520;DHT22;15732;48.534;20.382;2023-04-15T08:39:02;11.40;99.90
28520;DHT22;15732;48.534;20.382;2023-04-15T08:41:44;11.40;99.90
28520;DHT22;15732;48.534;20.382;2023-04-15T08:44:13;11.40;99.90
28520;DHT22;15732;48.534;20.382;2023-04-15T08:46:41;11.40;99.90
28520;DHT22;15732;48.534;20.382;2023-04-15T08:49:10;11.50;99.90
28520;DHT22;15732;48.534;20.382;2023-04-15T08:51:40;11.50;99.90
28520;DHT22;15732;48.534;20.382;2023-04-15T08:54:11;11.60;99.90
28520;DHT22;15732;48.534;20.382;2023-04-15T08:56:42;11.60;99.90
28520;DHT22;15732;48.534;20.382;2023-04-15T08:59:10;11.50;99.90
28520;DHT22;15732;48.534;20.382;2023-04-15T09:01:38;11.60;99.90
28520;DHT22;15732;48.534;20.382;2023-04-15T09:04:06;11.60;99.90
28520;DHT22;15732;48.534;20.382;2023-04-15T09:06:33;11.50;99.90
28520;DHT22;15732;48.534;20.382;2023-04-15T09:09:00;11.60;99.90
28520;DHT22;15732;48.534;20.382;2023-04-15T09:11:32;11.60;99.90
28520;DHT22;15732;48.534;20.382;2023-04-15T09:13:59;11.60;99.90
28520;DHT22;15732;48.534;20.382;2023-04-15T09:16:26;11.70;99.90
28520;DHT22;15732;48.534;20.382;2023-04-15T09:18:54;11.70;99.90
28520;DHT22;15732;48.534;20.382;2023-04-15T09:21:25;11.80;99.90
28520;DHT22;15732;48.534;20.382;2023-04-15T09:23:59;11.80;99.90
28520;DHT22;15732;48.534;20.382;2023-04-15T09:26:33;11.80;99.90
28520;DHT22;15732;48.534;20.382;2023-04-15T09:29:08;11.90;99.90
28520;DHT22;15732;48.534;20.382;2023-04-15T09:31:37;11.90;99.90
28520;DHT22;15732;48.534;20.382;2023-04-15T09:34:09;11.90;99.90
28520;DHT22;15732;48.534;20.382;2023-04-15T09:39:12;12.00;99.90
28520;DHT22;15732;48.534;20.382;2023-04-15T09:41:40;12.10;99.90
28520;DHT22;15732;48.534;20.382;2023-04-15T09:44:24;12.20;99.90
28520;DHT22;15732;48.534;20.382;2023-04-15T09:47:08;12.30;99.90
28520;DHT22;15732;48.534;20.382;2023-04-15T09:49:35;12.40;99.90
28520;DHT22;15732;48.534;20.382;2023-04-15T09:52:03;12.60;99.90
28520;DHT22;15732;48.534;20.382;2023-04-15T09:54:37;12.70;99.90
28520;DHT22;15732;48.534;20.382;2023-04-15T09:57:08;12.80;99.90
28520;DHT22;15732;48.534;20.382;2023-04-15T09:59:39;12.90;99.90
28520;DHT22;15732;48.534;20.382;2023-04-15T10:02:06;13.00;99.90
28520;DHT22;15732;48.534;20.382;2023-04-15T10:04:35;13.10;99.90
28520;DHT22;15732;48.534;20.382;2023-04-15T10:07:05;13.20;99.90
28520;DHT22;15732;48.534;20.382;2023-04-15T10:09:38;13.30;99.90
28520;DHT22;15732;48.534;20.382;2023-04-15T10:12:09;13.40;99.90
28520;DHT22;15732;48.534;20.382;2023-04-15T10:14:37;13.50;99.90
28520;DHT22;15732;48.534;20.382;2023-04-15T10:17:06;13.50;99.90
28520;DHT22;15732;48.534;20.382;2023-04-15T10:19:37;13.40;99.90
28520;DHT22;15732;48.534;20.382;2023-04-15T10:22:03;13.40;99.90
28520;DHT22;15732;48.534;20.382;2023-04-15T10:24:30;13.50;99.90
28520;DHT22;15732;48.534;20.382;2023-04-15T10:26:59;13.50;99.90
28520;DHT22;15732;48.534;20.382;2023-04-15T10:29:27;13.60;99.90
28520;DHT22;15732;48.534;20.382;2023-04-15T10:31:58;13.70;99.90
28520;DHT22;15732;48.534;20.382;2023-04-15T10:34:27;13.70;99.90
28520;DHT22;15732;48.534;20.382;2023-04-15T10:37:01;13.60;99.90
28520;DHT22;15732;48.534;20.382;2023-04-15T10:44:51;13.50;99.90
28520;DHT22;15732;48.534;20.382;2023-04-15T10:47:23;13.50;99.90
28520;DHT22;15732;48.534;20.382;2023-04-15T10:49:58;13.30;99.90
28520;DHT22;15732;48.534;20.382;2023-04-15T10:52:27;13.00;99.90
28520;DHT22;15732;48.534;20.382;2023-04-15T10:55:22;12.70;99.90
28520;DHT22;15732;48.534;20.382;2023-04-15T10:57:53;12.60;99.90
28520;DHT22;15732;48.534;20.382;2023-04-15T11:00:23;12.50;99.90
28520;DHT22;15732;48.534;20.382;2023-04-15T11:03:11;12.30;99.90
28520;DHT22;15732;48.534;20.382;2023-04-15T11:08:08;12.10;99.90
28520;DHT22;15732;48.534;20.382;2023-04-15T11:13:05;11.90;99.90
28520;DHT22;15732;48.534;20.382;2023-04-15T11:20:35;11.80;99.90
28520;DHT22;15732;48.534;20.382;2023-04-15T11:23:07;11.70;99.90
28520;DHT22;15732;48.534;20.382;2023-04-15T11:25:35;11.60;99.90
28520;DHT22;15732;48.534;20.382;2023-04-15T11:28:05;11.60;99.90
28520;DHT22;15732;48.534;20.382;2023-04-15T11:30:37;11.50;99.90
28520;DHT22;15732;48.534;20.382;2023-04-15T11:33:06;11.40;99.90
28520;DHT22;15732;48.534;20.382;2023-04-15T11:35:37;11.40;99.90
28520;DHT22;15732;48.534;20.382;2023-04-15T11:38:10;11.30;99.90
28520;DHT22;15732;48.534;20.382;2023-04-15T11:40:38;11.30;99.90
28520;DHT22;15732;48.534;20.382;2023-04-15T11:43:21;11.30;99.90
28520;DHT22;15732;48.534;20.382;2023-04-15T11:48:20;11.20;99.90
28520;DHT22;15732;48.534;20.382;2023-04-15T11:51:02;11.20;99.90
28520;DHT22;15732;48.534;20.382;2023-04-15T11:53:54;11.20;99.90
28520;DHT22;15732;48.534;20.382;2023-04-15T11:56:26;11.10;99.90
28520;DHT22;15732;48.534;20.382;2023-04-15T11:58:55;11.10;99.90
28520;DHT22;15732;48.534;20.382;2023-04-15T12:01:37;11.10;99.90
28520;DHT22;15732;48.534;20.382;2023-04-15T12:04:14;11.10;99.90
28520;DHT22;15732;48.534;20.382;2023-04-15T12:06:47;11.10;99.90
28520;DHT22;15732;48.534;20.382;2023-04-15T12:09:37;11.10;99.90
28520;DHT22;15732;48.534;20.382;2023-04-15T12:12:05;11.10;99.90
28520;DHT22;15732;48.534;20.382;2023-04-15T12:14:38;11.20;99.90
28520;DHT22;15732;48.534;20.382;2023-04-15T12:17:06;11.10;99.90
28520;DHT22;15732;48.534;20.382;2023-04-15T12:19:39;11.20;99.90
28520;DHT22;15732;48.534;20.382;2023-04-15T12:22:15;11.20;99.90
28520;DHT22;15732;48.534;20.382;2023-04-15T12:24:46;11.10;99.90
28520;DHT22;15732;48.534;20.382;2023-04-15T12:27:25;11.00;99.90
28520;DHT22;15732;48.534;20.382;2023-04-15T12:30:06;10.80;99.90
28520;DHT22;15732;48.534;20.382;2023-04-15T12:32:35;10.60;99.90
28520;DHT22;15732;48.534;20.382;2023-04-15T12:35:02;10.40;99.90
28520;DHT22;15732;48.534;20.382;2023-04-15T12:37:30;10.20;99.90
28520;DHT22;15732;48.534;20.382;2023-04-15T12:40:02;10.10;99.90
28520;DHT22;15732;48.534;20.382;2023-04-15T12:42:29;10.00;99.90
28520;DHT22;15732;48.534;20.382;2023-04-15T12:44:57;9.80;99.90
28520;DHT22;15732;48.534;20.382;2023-04-15T12:47:24;9.80;99.90
28520;DHT22;15732;48.534;20.382;2023-04-15T12:49:51;9.80;99.90
28520;DHT22;15732;48.534;20.382;2023-04-15T12:52:19;9.80;99.90
28520;DHT22;15732;48.534;20.382;2023-04-15T12:54:46;9.70;99.90
28520;DHT22;15732;48.534;20.382;2023-04-15T12:57:17;9.70;99.90
28520;DHT22;15732;48.534;20.382;2023-04-15T12:59:45;9.80;99.90
28520;DHT22;15732;48.534;20.382;2023-04-15T13:02:16;9.90;99.90
28520;DHT22;15732;48.534;20.382;2023-04-15T13:04:49;10.00;99.90
28520;DHT22;15732;48.534;20.382;2023-04-15T13:07:20;10.10;99.90
28520;DHT22;15732;48.534;20.382;2023-04-15T13:09:51;10.10;99.90
28520;DHT22;15732;48.534;20.382;2023-04-15T13:12:19;10.20;99.90
28520;DHT22;15732;48.534;20.382;2023-04-15T13:14:46;10.20;99.90
28520;DHT22;15732;48.534;20.382;2023-04-15T13:17:14;10.30;99.90
28520;DHT22;15732;48.534;20.382;2023-04-15T13:19:44;10.30;99.90
28520;DHT22;15732;48.534;20.382;2023-04-15T13:22:12;10.50;99.90
28520;DHT22;15732;48.534;20.382;2023-04-15T13:24:40;10.50;99.90
28520;DHT22;15732;48.534;20.382;2023-04-15T13:27:08;10.60;99.90
28520;DHT22;15732;48.534;20.382;2023-04-15T13:29:39;10.60;99.90
28520;DHT22;15732;48.534;20.382;2023-04-15T13:32:11;10.60;99.90
28520;DHT22;15732;48.534;20.382;2023-04-15T13:34:38;10.60;99.90
28520;DHT22;15732;48.534;20.382;2023-04-15T13:37:08;10.60;99.90
28520;DHT22;15732;48.534;20.382;2023-04-15T13:39:35;10.60;99.90
28520;DHT22;15732;48.534;20.382;2023-04-15T13:42:03;10.60;99.90
28520;DHT22;15732;48.534;20.382;2023-04-15T13:44:31;10.70;99.90
28520;DHT22;15732;48.534;20.382;2023-04-15T13:47:02;10.70;99.90
28520;DHT22;15732;48.534;20.382;2023-04-15T13:49:29;10.80;99.90
28520;DHT22;15732;48.534;20.382;2023-04-15T13:51:57;10.80;99.90
28520;DHT22;15732;48.534;20.382;2023-04-15T13:54:24;10.90;99.90
28520;DHT22;15732;48.534;20.382;2023-04-15T13:56:53;11.00;99.90
28520;DHT22;15732;48.534;20.382;2023-04-15T13:59:22;11.10;99.90
28520;DHT22;15732;48.534;20.382;2023-04-15T14:01:50;11.10;99.90
28520;DHT22;15732;48.534;20.382;2023-04-15T14:04:21;11.10;99.90
28520;DHT22;15732;48.534;20.382;2023-04-15T14:06:48;11.10;99.90
28520;DHT22;15732;48.534;20.382;2023-04-15T14:09:16;11.10;99.90
28520;DHT22;15732;48.534;20.382;2023-04-15T14:11:44;10.90;99.90
28520;DHT22;15732;48.534;20.382;2023-04-15T14:14:11;10.90;99.90
28520;DHT22;15732;48.534;20.382;2023-04-15T14:16:39;10.90;99.90
28520;DHT22;15732;48.534;20.382;2023-04-15T14:19:10;10.80;99.90
28520;DHT22;15732;48.534;20.382;2023-04-15T14:21:37;10.80;99.90
28520;DHT22;15732;48.534;20.382;2023-04-15T14:24:09;10.70;99.90
28520;DHT22;15732;48.534;20.382;2023-04-15T14:26:41;10.70;99.90
28520;DHT22;15732;48.534;20.382;2023-04-15T14:29:09;10.60;99.90
28520;DHT22;15732;48.534;20.382;2023-04-15T14:31:37;10.70;99.90
28520;DHT22;15732;48.534;20.382;2023-04-15T14:34:08;10.80;99.90
28520;DHT22;15732;48.534;20.382;2023-04-15T14:36:35;10.70;99.90
28520;DHT22;15732;48.534;20.382;2023-04-15T14:39:02;10.70;99.90
28520;DHT22;15732;48.534;20.382;2023-04-15T14:41:30;10.80;99.90
28520;DHT22;15732;48.534;20.382;2023-04-15T14:43:57;10.70;99.90
28520;DHT22;15732;48.534;20.382;2023-04-15T14:46:29;10.60;99.90
28520;DHT22;15732;48.534;20.382;2023-04-15T14:48:56;10.50;99.90
28520;DHT22;15732;48.534;20.382;2023-04-15T14:51:28;10.50;99.90
28520;DHT22;15732;48.534;20.382;2023-04-15T14:53:55;10.50;99.90
28520;DHT22;15732;48.534;20.382;2023-04-15T14:56:23;10.60;99.90
28520;DHT22;15732;48.534;20.382;2023-04-15T14:58:50;10.70;99.90
28520;DHT22;15732;48.534;20.382;2023-04-15T15:01:22;10.70;99.90
28520;DHT22;15732;48.534;20.382;2023-04-15T15:03:49;10.70;99.90
28520;DHT22;15732;48.534;20.382;2023-04-15T15:06:19;10.70;99.90
28520;DHT22;15732;48.534;20.382;2023-04-15T15:08:45;10.50;99.90
28520;DHT22;15732;48.534;20.382;2023-04-15T15:11:16;10.60;99.90
28520;DHT22;15732;48.534;20.382;2023-04-15T15:13:44;10.60;99.90
28520;DHT22;15732;48.534;20.382;2023-04-15T15:16:11;10.60;99.90
28520;DHT22;15732;48.534;20.382;2023-04-15T15:18:39;10.60;99.90
28520;DHT22;15732;48.534;20.382;2023-04-15T15:21:11;10.40;99.90
28520;DHT22;15732;48.534;20.382;2023-04-15T15:23:38;10.30;99.90
28520;DHT22;15732;48.534;20.382;2023-04-15T15:26:06;10.20;99.90
28520;DHT22;15732;48.534;20.382;2023-04-15T15:28:37;10.00;99.90
28520;DHT22;15732;48.534;20.382;2023-04-15T15:31:04;9.90;99.90
28520;DHT22;15732;48.534;20.382;2023-04-15T15:33:31;10.00;99.90
28520;DHT22;15732;48.534;20.382;2023-04-15T15:35:59;10.10;99.90
28520;DHT22;15732;48.534;20.382;2023-04-15T15:38:27;10.20;99.90
28520;DHT22;15732;48.534;20.382;2023-04-15T15:40:53;10.30;99.90
28520;DHT22;15732;48.534;20.382;2023-04-15T15:43:21;10.40;99.90
28520;DHT22;15732;48.534;20.382;2023-04-15T15:45:52;10.50;99.90
28520;DHT22;15732;48.534;20.382;2023-04-15T15:48:22;10.50;99.90
28520;DHT22;15732;48.534;20.382;2023-04-15T15:50:49;10.50;99.90
28520;DHT22;15732;48.534;20.382;2023-04-15T15:53:17;10.60;99.90
28520;DHT22;15732;48.534;20.382;2023-04-15T15:55:46;10.60;99.90